createdAt,value
2017-08-30T00:01:11.870Z,18.80
2017-08-30T00:03:39.363Z,18.23
2017-08-30T00:06:06.845Z,17.23
2017-08-30T00:08:34.301Z,16.50
2017-08-30T00:11:01.768Z,16.00
2017-08-30T00:13:29.257Z,16.40
2017-08-30T00:15:56.708Z,18.10
2017-08-30T00:18:24.173Z,18.90
2017-08-30T00:20:51.657Z,17.17
2017-08-30T00:23:19.110Z,18.33
2017-08-30T00:25:58.446Z,17.60
2017-08-30T00:28:25.929Z,17.17
2017-08-30T00:30:53.404Z,17.43
2017-08-30T00:33:20.871Z,16.97
2017-08-30T00:35:48.365Z,17.47
2017-08-30T00:38:15.825Z,16.33
2017-08-30T00:40:43.290Z,16.23
2017-08-30T00:43:10.769Z,16.27
2017-08-30T00:45:39.030Z,16.30
2017-08-30T00:48:06.495Z,16.07
2017-08-30T00:50:33.954Z,15.47
2017-08-30T00:53:01.437Z,16.33
2017-08-30T00:55:28.894Z,16.50
2017-08-30T00:57:56.355Z,16.90
2017-08-30T01:00:23.829Z,16.73
2017-08-30T01:02:51.283Z,15.60
2017-08-30T01:05:18.752Z,16.13
2017-08-30T01:07:46.241Z,17.33
2017-08-30T01:10:13.752Z,16.47
2017-08-30T01:12:41.994Z,16.23
2017-08-30T01:15:09.460Z,16.63
2017-08-30T01:17:36.942Z,15.43
2017-08-30T01:20:04.414Z,17.37
2017-08-30T01:22:31.902Z,15.70
2017-08-30T01:24:59.359Z,16.17
2017-08-30T01:27:26.814Z,15.13
2017-08-30T01:29:54.296Z,16.83
2017-08-30T01:32:21.771Z,16.10
2017-08-30T01:34:49.225Z,17.00
2017-08-30T01:37:16.702Z,18.97
2017-08-30T01:39:44.183Z,19.20
2017-08-30T01:42:11.656Z,17.67
2017-08-30T01:44:39.118Z,17.67
2017-08-30T01:47:06.607Z,18.60
2017-08-30T01:49:34.083Z,17.17
2017-08-30T01:52:01.532Z,19.80
2017-08-30T01:54:29.018Z,19.50
2017-08-30T01:56:57.242Z,20.40
2017-08-30T01:59:24.693Z,19.33
2017-08-30T02:01:52.175Z,19.43
2017-08-30T02:04:19.625Z,22.63
2017-08-30T02:06:47.101Z,19.73
2017-08-30T02:09:14.614Z,26.37
2017-08-30T02:11:42.073Z,32.80
2017-08-30T02:14:09.570Z,32.90
2017-08-30T02:16:37.021Z,50.33
2017-08-30T02:19:04.485Z,55.77
2017-08-30T02:21:31.965Z,59.30
2017-08-30T02:23:59.418Z,56.90
2017-08-30T02:26:26.902Z,65.50
2017-08-30T02:28:55.128Z,65.13
2017-08-30T02:31:22.610Z,68.77
2017-08-30T02:33:50.069Z,76.57
2017-08-30T02:36:17.548Z,76.70
2017-08-30T02:38:45.951Z,76.10
2017-08-30T02:41:13.411Z,80.90
2017-08-30T02:43:40.907Z,86.80
2017-08-30T02:46:08.380Z,85.30
2017-08-30T02:48:35.838Z,86.53
2017-08-30T02:51:03.318Z,88.20
2017-08-30T02:53:30.778Z,89.60
2017-08-30T02:55:58.260Z,89.07
2017-08-30T02:58:25.738Z,84.07
2017-08-30T03:00:53.202Z,85.60
2017-08-30T03:03:20.685Z,81.53
2017-08-30T03:05:48.142Z,83.40
2017-08-30T03:08:15.659Z,76.90
2017-08-30T03:10:43.118Z,78.50
2017-08-30T03:13:10.580Z,78.07
2017-08-30T03:15:38.058Z,75.97
2017-08-30T03:18:05.559Z,78.27
2017-08-30T03:20:33.010Z,76.87
2017-08-30T03:23:00.465Z,77.17
2017-08-30T03:25:28.326Z,74.63
2017-08-30T03:27:55.794Z,76.80
2017-08-30T03:30:23.286Z,72.67
2017-08-30T03:32:51.474Z,79.37
2017-08-30T03:35:19.001Z,77.70
2017-08-30T03:37:46.457Z,74.13
2017-08-30T03:40:13.921Z,76.40
2017-08-30T03:42:41.405Z,75.87
2017-08-30T03:45:08.882Z,81.77
2017-08-30T03:47:36.344Z,81.73
2017-08-30T03:50:03.834Z,83.40
2017-08-30T03:52:31.289Z,83.23
2017-08-30T03:54:58.740Z,82.00
2017-08-30T03:57:26.243Z,85.30
2017-08-30T03:59:53.779Z,80.90
2017-08-30T04:02:21.253Z,85.67
2017-08-30T04:04:48.781Z,84.33
2017-08-30T04:07:16.236Z,77.37
2017-08-30T04:09:43.698Z,85.23
2017-08-30T04:12:11.178Z,81.70
2017-08-30T04:14:39.439Z,83.60
2017-08-30T04:17:06.893Z,82.37
2017-08-30T04:19:34.385Z,81.17
2017-08-30T04:22:02.425Z,82.07
2017-08-30T04:24:29.909Z,84.47
2017-08-30T04:26:57.401Z,85.70
2017-08-30T04:29:24.904Z,80.90
2017-08-30T04:31:52.392Z,82.90
2017-08-30T04:34:19.846Z,80.30
2017-08-30T04:36:47.311Z,83.27
2017-08-30T04:39:14.798Z,75.87
2017-08-30T04:41:42.290Z,86.03
2017-08-30T04:44:09.749Z,87.73
2017-08-30T04:46:37.974Z,83.70
2017-08-30T04:49:05.463Z,86.07
2017-08-30T04:51:33.101Z,86.20
2017-08-30T04:54:00.691Z,85.70
2017-08-30T04:56:28.164Z,79.90
2017-08-30T04:58:55.968Z,77.13
2017-08-30T05:01:23.466Z,83.00
2017-08-30T05:03:50.997Z,78.57
2017-08-30T05:06:18.561Z,77.90
2017-08-30T05:08:46.180Z,78.13
2017-08-30T05:11:13.721Z,81.37
2017-08-30T05:13:41.209Z,79.13
2017-08-30T05:16:08.682Z,73.87
2017-08-30T05:18:36.201Z,78.50
2017-08-30T05:21:03.666Z,75.10
2017-08-30T05:23:31.125Z,75.40
2017-08-30T05:25:58.601Z,73.80
2017-08-30T05:28:26.153Z,72.50
2017-08-30T05:30:54.497Z,72.60
2017-08-30T05:33:22.053Z,79.90
2017-08-30T05:35:49.610Z,70.93
2017-08-30T05:38:17.093Z,69.27
2017-08-30T05:40:44.582Z,68.53
2017-08-30T05:43:12.062Z,72.70
2017-08-30T05:45:39.539Z,73.20
2017-08-30T05:48:06.993Z,77.50
2017-08-30T05:50:34.513Z,67.90
2017-08-30T05:53:02.008Z,67.27
2017-08-30T05:55:29.465Z,65.23
2017-08-30T05:57:56.959Z,61.70
2017-08-30T06:00:24.414Z,63.73
2017-08-30T06:02:53.201Z,61.45
2017-08-30T06:05:20.662Z,63.17
2017-08-30T06:07:48.146Z,57.77
2017-08-30T06:10:15.654Z,56.50
2017-08-30T06:12:43.113Z,54.33
2017-08-30T06:15:10.612Z,54.13
2017-08-30T06:17:38.070Z,52.70
2017-08-30T06:20:05.638Z,51.57
2017-08-30T06:22:33.885Z,53.47
2017-08-30T06:25:01.406Z,51.90
2017-08-30T06:27:30.677Z,50.90
2017-08-30T06:29:58.303Z,49.00
2017-08-30T06:32:25.782Z,47.20
2017-08-30T06:34:53.276Z,49.80
2017-08-30T06:37:20.754Z,48.20
2017-08-30T06:39:48.230Z,48.20
2017-08-30T06:42:15.710Z,46.50
2017-08-30T06:44:43.190Z,50.30
2017-08-30T06:47:10.674Z,45.93
2017-08-30T06:49:38.198Z,48.93
2017-08-30T06:52:05.679Z,45.80
2017-08-30T06:54:33.161Z,47.23
2017-08-30T06:57:00.641Z,49.67
2017-08-30T06:59:28.126Z,41.83
2017-08-30T07:01:55.581Z,47.27
2017-08-30T07:04:23.038Z,44.90
2017-08-30T07:06:50.540Z,45.23
2017-08-30T07:09:18.030Z,45.10
2017-08-30T07:11:45.487Z,45.43
2017-08-30T07:14:12.947Z,48.13
2017-08-30T07:16:40.418Z,45.47
2017-08-30T07:19:07.931Z,46.57
2017-08-30T07:21:35.390Z,44.87
2017-08-30T07:24:02.902Z,47.70
2017-08-30T07:26:30.621Z,48.40
2017-08-30T07:28:58.127Z,47.00
2017-08-30T07:31:25.577Z,48.20
2017-08-30T07:33:53.032Z,51.20
2017-08-30T07:36:20.517Z,48.47
2017-08-30T07:38:48.783Z,44.33
2017-08-30T07:41:16.242Z,49.23
2017-08-30T07:43:43.746Z,46.63
2017-08-30T07:46:11.229Z,51.00
2017-08-30T07:48:38.719Z,51.40
2017-08-30T07:51:06.193Z,51.33
2017-08-30T07:53:33.658Z,54.20
2017-08-30T07:56:01.133Z,52.80
2017-08-30T07:58:28.584Z,54.30
2017-08-30T08:00:56.061Z,55.10
2017-08-30T08:03:23.542Z,57.40
2017-08-30T08:05:51.054Z,55.67
2017-08-30T08:08:18.519Z,55.23
2017-08-30T08:10:45.980Z,52.33
2017-08-30T08:13:13.458Z,59.07
2017-08-30T08:15:40.946Z,58.33
2017-08-30T08:18:08.406Z,55.10
2017-08-30T08:20:35.862Z,58.20
2017-08-30T08:23:03.346Z,58.70
2017-08-30T08:25:30.817Z,51.07
2017-08-30T08:27:58.274Z,56.50
2017-08-30T08:30:25.759Z,62.10
2017-08-30T08:32:54.165Z,61.78
2017-08-30T08:35:21.653Z,60.60
2017-08-30T08:37:49.154Z,61.17
2017-08-30T08:40:17.694Z,60.87
2017-08-30T08:42:45.161Z,63.17
2017-08-30T08:45:12.641Z,58.73
2017-08-30T08:47:40.125Z,68.90
2017-08-30T08:50:07.614Z,67.10
2017-08-30T08:52:35.113Z,64.03
2017-08-30T08:55:02.610Z,70.07
2017-08-30T08:57:30.094Z,62.07
2017-08-30T08:59:57.554Z,65.63
2017-08-30T09:02:25.033Z,62.97
2017-08-30T09:04:52.495Z,57.67
2017-08-30T09:07:19.979Z,58.67
2017-08-30T09:09:47.465Z,55.80
2017-08-30T09:12:14.929Z,54.17
2017-08-30T09:14:42.394Z,50.17
2017-08-30T09:17:09.870Z,42.60
2017-08-30T09:19:37.329Z,41.70
2017-08-30T09:22:04.815Z,42.90
2017-08-30T09:24:32.485Z,37.97
2017-08-30T09:27:00.010Z,39.43
2017-08-30T09:29:27.465Z,40.23
2017-08-30T09:31:54.927Z,42.10
2017-08-30T09:34:22.410Z,43.70
2017-08-30T09:36:49.895Z,45.70
2017-08-30T09:39:17.378Z,42.97
2017-08-30T09:41:44.875Z,48.87
2017-08-30T09:44:12.332Z,48.67
2017-08-30T09:46:39.799Z,44.10
2017-08-30T09:49:07.302Z,48.70
2017-08-30T09:51:34.763Z,45.47
2017-08-30T09:54:02.218Z,40.00
2017-08-30T09:56:29.693Z,41.87
2017-08-30T09:58:57.154Z,44.00
2017-08-30T10:01:24.630Z,45.17
2017-08-30T10:03:52.853Z,36.33
2017-08-30T10:06:20.338Z,43.70
2017-08-30T10:08:47.805Z,41.07
2017-08-30T10:11:15.265Z,41.23
2017-08-30T10:13:42.742Z,39.37
2017-08-30T10:16:10.229Z,33.40
2017-08-30T10:18:37.689Z,39.20
2017-08-30T10:21:05.143Z,31.80
2017-08-30T10:23:32.618Z,35.50
2017-08-30T10:26:00.099Z,34.30
2017-08-30T10:28:27.553Z,34.40
2017-08-30T10:30:55.056Z,35.10
2017-08-30T10:33:22.517Z,33.20
2017-08-30T10:35:49.973Z,33.50
2017-08-30T10:38:17.449Z,36.13
2017-08-30T10:40:44.907Z,35.00
2017-08-30T10:43:12.379Z,37.77
2017-08-30T10:45:39.831Z,30.47
2017-08-30T10:48:08.157Z,34.87
2017-08-30T10:50:35.619Z,33.17
2017-08-30T10:53:03.083Z,41.40
2017-08-30T10:55:30.575Z,40.33
2017-08-30T10:57:58.049Z,39.27
2017-08-30T11:00:25.505Z,40.13
2017-08-30T11:02:53.002Z,40.80
2017-08-30T11:05:20.466Z,39.50
2017-08-30T11:07:47.990Z,38.30
2017-08-30T11:10:15.474Z,37.07
2017-08-30T11:12:42.937Z,39.50
2017-08-30T11:15:10.421Z,40.90
2017-08-30T11:17:37.880Z,39.10
2017-08-30T11:20:05.362Z,41.80
2017-08-30T11:22:32.861Z,43.60
2017-08-30T11:25:00.330Z,46.13
2017-08-30T11:27:27.790Z,44.53
2017-08-30T11:29:55.273Z,47.33
2017-08-30T11:32:22.743Z,49.30
2017-08-30T11:34:50.229Z,47.33
2017-08-30T11:37:17.685Z,49.90
2017-08-30T11:39:45.149Z,50.57
2017-08-30T11:42:12.627Z,51.17
2017-08-30T11:44:40.105Z,50.70
2017-08-30T11:47:07.558Z,51.03
2017-08-30T11:49:35.038Z,51.93
2017-08-30T11:52:02.515Z,53.27
2017-08-30T11:54:30.014Z,52.30
2017-08-30T11:56:57.467Z,52.40
2017-08-30T11:59:24.928Z,52.07
2017-08-30T12:01:52.399Z,45.80
2017-08-30T12:04:19.861Z,51.73
2017-08-30T12:06:47.342Z,49.73
2017-08-30T12:09:14.826Z,50.13
2017-08-30T12:11:42.312Z,50.37
2017-08-30T12:14:09.948Z,49.67
2017-08-30T12:16:37.400Z,53.00
2017-08-30T12:19:04.946Z,45.57
2017-08-30T12:21:32.445Z,46.90
2017-08-30T12:23:59.907Z,47.80
2017-08-30T12:26:27.362Z,45.00
2017-08-30T12:28:54.850Z,44.63
2017-08-30T12:31:22.297Z,47.33
2017-08-30T12:33:49.757Z,46.87
2017-08-30T12:36:17.237Z,46.23
2017-08-30T12:41:46.570Z,45.40
2017-08-30T12:44:14.027Z,47.10
2017-08-30T12:46:41.530Z,48.00
2017-08-30T12:49:08.990Z,46.50
2017-08-30T12:51:36.445Z,44.10
2017-08-30T12:54:03.945Z,46.50
2017-08-30T12:56:31.397Z,43.50
2017-08-30T12:58:58.893Z,46.33
2017-08-30T13:01:26.402Z,46.53
2017-08-30T13:03:53.870Z,46.80
2017-08-30T13:06:21.397Z,48.00
2017-08-30T13:08:48.865Z,47.60
2017-08-30T13:11:16.328Z,46.60
2017-08-30T13:13:43.805Z,46.70
2017-08-30T13:16:11.286Z,46.63
2017-08-30T13:18:38.779Z,48.23
2017-08-30T13:21:06.254Z,44.63
2017-08-30T13:23:33.733Z,46.00
2017-08-30T13:26:01.190Z,46.47
2017-08-30T13:28:28.716Z,45.57
2017-08-30T13:30:56.171Z,47.80
2017-08-30T13:33:23.638Z,46.80
2017-08-30T13:35:51.129Z,46.03
2017-08-30T13:38:18.591Z,41.40
2017-08-30T13:40:46.094Z,45.30
2017-08-30T13:43:13.594Z,47.93
2017-08-30T13:45:41.086Z,48.40
2017-08-30T13:48:08.540Z,50.27
2017-08-30T13:50:36.039Z,48.27
2017-08-30T13:53:03.546Z,50.20
2017-08-30T13:55:31.006Z,51.27
2017-08-30T13:57:58.458Z,53.60
2017-08-30T14:00:25.954Z,54.53
2017-08-30T14:02:53.397Z,52.00
2017-08-30T14:05:20.894Z,53.07
2017-08-30T14:07:48.386Z,54.70
2017-08-30T14:10:15.922Z,56.27
2017-08-30T14:12:43.503Z,54.83
2017-08-30T14:15:11.007Z,58.83
2017-08-30T14:17:38.506Z,51.00
2017-08-30T14:20:06.033Z,54.00
2017-08-30T14:22:33.540Z,57.73
2017-08-30T14:25:01.056Z,61.07
2017-08-30T14:27:28.566Z,58.07
2017-08-30T14:29:56.022Z,63.77
2017-08-30T14:32:23.534Z,61.27
2017-08-30T14:34:51.121Z,57.93
2017-08-30T14:37:18.698Z,62.20
2017-08-30T14:39:46.199Z,66.97
2017-08-30T14:42:13.722Z,69.00
2017-08-30T14:44:41.265Z,65.60
2017-08-30T14:47:08.771Z,70.23
2017-08-30T14:49:36.801Z,68.20
2017-08-30T14:52:05.263Z,67.80
2017-08-30T14:54:33.320Z,70.27
2017-08-30T14:57:02.056Z,69.53
2017-08-30T14:59:29.702Z,72.10
2017-08-30T15:01:57.408Z,71.40
2017-08-30T15:04:25.036Z,68.53
2017-08-30T15:06:52.654Z,68.37
2017-08-30T15:09:20.490Z,69.17
2017-08-30T15:11:48.917Z,68.07
2017-08-30T15:14:16.559Z,66.57
2017-08-30T15:16:44.473Z,66.93
2017-08-30T15:19:12.158Z,68.40
2017-08-30T15:21:39.808Z,70.47
2017-08-30T15:24:07.431Z,71.40
2017-08-30T15:26:34.972Z,72.60
2017-08-30T15:29:02.512Z,71.70
2017-08-30T15:31:30.030Z,67.00
2017-08-30T15:33:57.652Z,72.53
2017-08-30T15:36:25.121Z,72.60
2017-08-30T15:38:52.926Z,72.97
2017-08-30T15:41:21.471Z,71.30
2017-08-30T15:43:49.393Z,72.17
2017-08-30T15:46:17.261Z,71.30
2017-08-30T15:48:45.123Z,71.17
2017-08-30T15:51:12.678Z,74.17
2017-08-30T15:53:40.494Z,73.83
2017-08-30T15:56:08.317Z,69.43
2017-08-30T15:58:35.817Z,70.60
2017-08-30T16:01:03.405Z,73.40
2017-08-30T16:03:30.928Z,73.47
2017-08-30T16:05:58.479Z,71.70
2017-08-30T16:08:26.040Z,69.60
2017-08-30T16:10:53.529Z,73.03
2017-08-30T16:13:21.113Z,70.10
2017-08-30T16:15:48.594Z,70.47
2017-08-30T16:18:16.102Z,68.87
2017-08-30T16:20:43.642Z,72.53
2017-08-30T16:23:11.225Z,74.63
2017-08-30T16:25:38.701Z,57.13
2017-08-30T16:28:06.195Z,66.60
2017-08-30T16:30:33.802Z,65.77
2017-08-30T16:33:01.306Z,62.33
2017-08-30T16:35:29.567Z,66.67
2017-08-30T16:37:57.148Z,68.83
2017-08-30T16:40:24.689Z,64.73
2017-08-30T16:42:52.229Z,69.90
2017-08-30T16:45:19.751Z,66.60
2017-08-30T16:47:47.267Z,65.37
2017-08-30T16:50:14.777Z,66.10
2017-08-30T16:52:42.285Z,68.03
2017-08-30T16:55:09.824Z,62.87
2017-08-30T16:57:37.309Z,67.60
2017-08-30T17:00:04.837Z,66.20
2017-08-30T17:02:32.316Z,72.27
2017-08-30T17:04:59.846Z,69.00
2017-08-30T17:07:27.402Z,67.70
2017-08-30T17:09:54.905Z,72.40
2017-08-30T17:12:22.465Z,69.33
2017-08-30T17:14:49.961Z,70.17
2017-08-30T17:17:17.493Z,68.60
2017-08-30T17:19:45.031Z,63.07
2017-08-30T17:22:12.582Z,65.40
2017-08-30T17:24:40.087Z,69.50
2017-08-30T17:27:07.734Z,67.10
2017-08-30T17:29:35.536Z,65.20
2017-08-30T17:32:03.155Z,68.03
2017-08-30T17:34:30.994Z,67.60
2017-08-30T17:36:58.748Z,71.37
2017-08-30T17:39:26.446Z,72.83
2017-08-30T17:41:54.093Z,72.60
2017-08-30T17:44:21.800Z,77.77
2017-08-30T17:46:49.430Z,77.07
2017-08-30T17:49:17.239Z,79.40
2017-08-30T17:51:44.766Z,75.40
2017-08-30T17:54:12.266Z,18.47
2017-08-30T17:56:40.522Z,2.80
2017-08-30T17:59:08.019Z,9.70
2017-08-30T18:01:35.489Z,6.87
2017-08-30T18:04:02.956Z,4.07
2017-08-30T18:06:30.467Z,2.93
2017-08-30T18:08:57.936Z,2.40
2017-08-30T18:11:25.406Z,4.10
2017-08-30T18:13:52.909Z,3.87
2017-08-30T18:16:20.401Z,4.30
2017-08-30T18:18:47.874Z,3.90
2017-08-30T18:21:15.397Z,4.90
2017-08-30T18:23:42.845Z,4.10
2017-08-30T18:26:10.296Z,4.37
2017-08-30T18:28:37.798Z,4.40
2017-08-30T18:31:05.241Z,5.40
2017-08-30T18:33:34.441Z,4.17
2017-08-30T18:36:03.106Z,4.63
2017-08-30T18:38:30.573Z,4.40
2017-08-30T18:40:58.077Z,7.80
2017-08-30T18:43:25.542Z,6.70
2017-08-30T18:45:53.065Z,11.40
2017-08-30T18:48:21.031Z,5.97
2017-08-30T18:50:48.540Z,7.30
2017-08-30T18:53:16.101Z,6.30
2017-08-30T18:55:44.507Z,4.87
2017-08-30T18:58:12.004Z,4.50
2017-08-30T19:00:40.270Z,4.50
2017-08-30T19:03:08.545Z,7.20
2017-08-30T19:05:36.245Z,6.70
2017-08-30T19:08:04.111Z,5.90
2017-08-30T19:10:31.567Z,6.83
2017-08-30T19:12:59.176Z,5.27
2017-08-30T19:15:27.644Z,8.00
2017-08-30T19:17:56.167Z,7.80
2017-08-30T19:20:25.327Z,12.20
2017-08-30T19:22:53.119Z,10.40
2017-08-30T19:25:21.063Z,11.20
2017-08-30T19:27:48.904Z,13.90
2017-08-30T19:30:16.660Z,12.33
2017-08-30T19:32:44.399Z,9.30
2017-08-30T19:35:12.152Z,9.57
2017-08-30T19:37:39.943Z,8.40
2017-08-30T19:40:07.584Z,8.63
2017-08-30T19:42:35.267Z,7.50
2017-08-30T19:45:02.964Z,7.57
2017-08-30T19:47:30.701Z,7.80
2017-08-30T19:49:58.326Z,9.90
2017-08-30T19:52:25.933Z,8.23
2017-08-30T19:54:54.697Z,10.10
2017-08-30T19:57:22.775Z,10.27
2017-08-30T19:59:50.795Z,11.30
2017-08-30T20:02:18.374Z,11.17
2017-08-30T20:04:46.185Z,10.17
2017-08-30T20:07:14.172Z,15.77
2017-08-30T20:09:41.655Z,13.00
2017-08-30T20:12:09.375Z,15.50
2017-08-30T20:14:37.209Z,16.97
2017-08-30T20:17:04.764Z,20.63
2017-08-30T20:19:32.223Z,19.20
2017-08-30T20:21:59.729Z,21.20
2017-08-30T20:24:27.233Z,23.67
2017-08-30T20:26:54.739Z,26.03
2017-08-30T20:29:22.202Z,29.70
2017-08-30T20:31:49.670Z,26.50
2017-08-30T20:34:17.174Z,28.60
2017-08-30T20:36:44.662Z,27.17
2017-08-30T20:39:12.169Z,29.00
2017-08-30T20:41:39.668Z,22.10
2017-08-30T20:44:07.890Z,21.30
2017-08-30T20:46:35.673Z,24.87
2017-08-30T20:49:03.148Z,24.80
2017-08-30T20:51:30.677Z,20.10
2017-08-30T20:53:58.137Z,16.00
2017-08-30T20:56:25.602Z,18.87
2017-08-30T20:58:53.098Z,19.80
2017-08-30T21:01:20.548Z,19.37
2017-08-30T21:03:48.066Z,24.40
2017-08-30T21:06:15.523Z,22.73
2017-08-30T21:08:42.976Z,22.40
2017-08-30T21:11:10.784Z,16.93
2017-08-30T21:13:38.243Z,15.87
2017-08-30T21:16:05.751Z,12.40
2017-08-30T21:18:33.201Z,11.17
2017-08-30T21:21:00.658Z,15.83
2017-08-30T21:23:28.157Z,13.90
2017-08-30T21:25:55.613Z,13.47
2017-08-30T21:28:23.121Z,12.57
2017-08-30T21:30:51.345Z,9.90
2017-08-30T21:33:18.865Z,9.93
2017-08-30T21:35:46.317Z,7.93
2017-08-30T21:38:13.774Z,9.00
2017-08-30T21:40:41.265Z,7.97
2017-08-30T21:43:08.766Z,7.93
2017-08-30T21:45:36.282Z,6.90
2017-08-30T21:48:03.738Z,6.90
2017-08-30T21:50:31.213Z,7.73
2017-08-30T21:52:58.714Z,7.47
2017-08-30T21:55:26.166Z,5.83
2017-08-30T21:57:53.670Z,8.03
2017-08-30T22:00:21.121Z,5.60
2017-08-30T22:02:48.631Z,6.10
2017-08-30T22:05:16.086Z,7.07
2017-08-30T22:07:43.534Z,5.40
2017-08-30T22:10:11.061Z,5.80
2017-08-30T22:12:38.530Z,4.53
2017-08-30T22:15:06.118Z,4.10
2017-08-30T22:17:33.561Z,4.00
2017-08-30T22:20:01.017Z,4.43
2017-08-30T22:22:28.486Z,4.30
2017-08-30T22:24:55.962Z,6.63
2017-08-30T22:27:23.410Z,4.87
2017-08-30T22:29:50.889Z,6.60
2017-08-30T22:32:18.342Z,7.23
2017-08-30T22:34:45.798Z,6.93
2017-08-30T22:37:13.269Z,7.33
2017-08-30T22:39:40.731Z,6.50
2017-08-30T22:42:08.191Z,6.13
2017-08-30T22:44:36.445Z,6.33
2017-08-30T22:47:03.898Z,5.50
2017-08-30T22:49:31.345Z,6.40
2017-08-30T22:51:58.817Z,6.80
2017-08-30T22:54:26.273Z,7.10
2017-08-30T22:56:53.782Z,4.93
2017-08-30T22:59:21.249Z,5.30
2017-08-30T23:01:48.706Z,7.37
2017-08-30T23:04:16.182Z,7.53
2017-08-30T23:06:43.633Z,6.07
2017-08-30T23:09:11.135Z,5.60
2017-08-30T23:11:38.600Z,5.60
2017-08-30T23:14:06.072Z,6.00
2017-08-30T23:16:33.550Z,5.67
2017-08-30T23:19:01.009Z,4.70
2017-08-30T23:21:28.486Z,4.00
2017-08-30T23:23:55.947Z,4.20
2017-08-30T23:26:23.394Z,3.60
2017-08-30T23:28:50.927Z,4.40
2017-08-30T23:31:18.381Z,4.30
2017-08-30T23:33:45.832Z,4.37
2017-08-30T23:36:13.313Z,4.73
2017-08-30T23:38:40.774Z,4.90
2017-08-30T23:41:08.236Z,4.50
2017-08-30T23:43:35.701Z,5.13
2017-08-30T23:46:03.150Z,4.30
2017-08-30T23:48:30.637Z,5.50
2017-08-30T23:50:58.089Z,4.93
2017-08-30T23:53:25.567Z,6.00
2017-08-30T23:55:53.022Z,6.60
2017-08-30T23:58:20.482Z,5.30
